Time;durP1;ratioP1;P1;durP2;ratioP2;P2;SDS_P1;SDS_P2;PMS_P1;PMS_P2;Temp;Humidity;BMP_temperature;BMP_pressure;BME280_temperature;BME280_humidity;BME280_pressure;Samples;Min_cycle;Max_cycle;Signal;HPM_P1;HPM_P2
2022/08/08 00:13:05;;;;;;;;;;;;;;;;;;5962240;24;19911;-86
2022/08/08 00:21:36;;;;;;;;;;;;;;;;;;;;;
2022/08/08 00:24:29;;;;;;;;;;;;;;;;;;5911694;24;19938;-87
2022/08/08 00:36:30;;;;;;;;;;;;;;;;;;5932346;24;19923;-87
2022/08/08 00:39:22;;;;;;;;;;;;;;;;;;;;;
2022/08/08 00:54:59;;;;;;;;;;;;;;;;;;;;;
2022/08/08 01:03:50;;;;;;;;;;;;;;;;;;6072068;23;19965;-87
2022/08/08 01:06:41;;;;;;;;;;;;;;;;;;6087611;23;19917;-87
2022/08/08 01:10:02;;;;;;;;;;;;;;;;;;;;;
2022/08/08 01:13:03;;;;;;;;;;;;;;;;;;;;;
2022/08/08 01:16:02;;;;;;;;;;;;;;;;;;;;;
2022/08/08 01:19:45;;;;;;;;;;;;;;;;;;;;;
2022/08/08 01:25:10;;;;;;;;;;;;;;;;;;;;;
2022/08/08 01:31:26;;;;;;;;;;;;;;;;;;;;;
2022/08/08 02:20:23;;;;;;;;;;;;;;;;;;6290438;22;19915;-85
2022/08/08 02:22:53;;;;;;;;;;;;;;;;;;6266177;22;19915;-85
2022/08/08 02:25:20;;;;;;;;;;;;;;;;;;6263348;22;19915;-85
2022/08/08 02:27:51;;;;;;;;;;;;;;;;;;6268478;22;20358;-85
2022/08/08 02:30:17;;;;;;;;;;;;;;;;;;6263594;22;19918;-85
2022/08/08 02:32:43;;;;;;;;;;;;;;;;;;6267075;22;19914;-85
2022/08/08 02:35:09;;;;;;;;;;;;;;;;;;6263173;22;19953;-85
2022/08/08 02:37:36;;;;;;;;;;;;;;;;;;6270127;22;19957;-85
2022/08/08 02:40:03;;;;;;;;;;;;;;;;;;6239525;22;19915;-85
2022/08/08 02:42:29;;;;;;;;;;;;;;;;;;6266679;22;19925;-85
2022/08/08 02:44:56;;;;;;;;;;;;;;;;;;6241948;22;20243;-85
2022/08/08 02:47:23;;;;;;;;;;;;;;;;;;6264975;22;20372;-84
2022/08/08 02:49:49;;;;;;;;;;;;;;;;;;6267542;22;20636;-84
2022/08/08 02:52:24;;;;;;;;;;;;;;;;;;6293634;22;20331;-84
2022/08/08 02:54:50;;;;;;;;;;;;;;;;;;6266295;22;19925;-84
2022/08/08 02:57:16;;;;;;;;;;;;;;;;;;6263791;22;19918;-85
2022/08/08 02:59:42;;;;;;;;;;;;;;;;;;6242502;22;20372;-85
2022/08/08 03:02:08;;;;;;;;;;;;;;;;;;6239357;22;19954;-84
2022/08/08 03:04:34;;;;;;;;;;;;;;;;;;6266789;22;20346;-84
2022/08/08 03:07:00;;;;;;;;;;;;;;;;;;6262636;22;19914;-85
2022/08/08 03:09:26;;;;;;;;;;;;;;;;;;6298770;22;19984;-84
2022/08/08 03:11:53;;;;;;;;;;;;;;;;;;6325733;22;19949;-84
2022/08/08 03:14:20;;;;;;;;;;;;;;;;;;6295488;22;20830;-84
2022/08/08 03:16:46;;;;;;;;;;;;;;;;;;6297388;22;19919;-84
2022/08/08 03:19:13;;;;;;;;;;;;;;;;;;6295133;22;19919;-84
2022/08/08 03:21:39;;;;;;;;;;;;;;;;;;6323547;22;19919;-84
2022/08/08 03:24:05;;;;;;;;;;;;;;;;;;6294811;22;19914;-84
2022/08/08 03:26:31;;;;;;;;;;;;;;;;;;6324124;22;20298;-84
2022/08/08 03:28:57;;;;;;;;;;;;;;;;;;6326146;22;19968;-85
2022/08/08 03:34:11;;;;;;;;;;;;;;;;;;6293372;22;19976;-84
2022/08/08 03:36:37;;;;;;;;;;;;;;;;;;6295978;22;20413;-84
2022/08/08 03:39:03;;;;;;;;;;;;;;;;;;6293132;22;20352;-85
2022/08/08 03:41:30;;;;;;;;;;;;;;;;;;6296303;22;19991;-85
2022/08/08 03:43:56;;;;;;;;;;;;;;;;;;6296428;22;19979;-85
2022/08/08 03:46:21;;;;;;;;;;;;;;;;;;6293744;22;19918;-85
2022/08/08 03:48:48;;;;;;;;;;;;;;;;;;6295799;22;19945;-85
2022/08/08 03:51:14;;;;;;;;;;;;;;;;;;6292264;22;19917;-85
2022/08/08 03:53:42;;;;;;;;;;;;;;;;;;6296139;22;19914;-84
2022/08/08 03:56:08;;;;;;;;;;;;;;;;;;6293723;22;20334;-85
2022/08/08 03:58:35;;;;;;;;;;;;;;;;;;6323376;22;19968;-84
2022/08/08 04:01:04;;;;;;;;;;;;;;;;;;6322798;22;19997;-85
2022/08/08 04:03:29;;;;;;;;;;;;;;;;;;6299307;22;19921;-84
2022/08/08 04:05:56;;;;;;;;;;;;;;;;;;6297843;22;20017;-84
2022/08/08 04:08:22;;;;;;;;;;;;;;;;;;6269540;22;19959;-85
2022/08/08 04:10:48;;;;;;;;;;;;;;;;;;6297842;22;19918;-85
2022/08/08 04:13:16;;;;;;;;;;;;;;;;;;6320066;22;19949;-85
2022/08/08 04:15:42;;;;;;;;;;;;;;;;;;6296275;22;19963;-85
2022/08/08 04:18:09;;;;;;;;;;;;;;;;;;6292530;22;19987;-85
2022/08/08 04:20:36;;;;;;;;;;;;;;;;;;6293460;22;19914;-84
2022/08/08 04:23:14;;;;;;;;;;;;;;;;;;6270557;22;19930;-85
2022/08/08 04:25:41;;;;;;;;;;;;;;;;;;6271162;22;19910;-85
2022/08/08 04:28:07;;;;;;;;;;;;;;;;;;6293980;22;19941;-85
2022/08/08 04:30:37;;;;;;;;;;;;;;;;;;6299427;22;19997;-84
2022/08/08 04:33:05;;;;;;;;;;;;;;;;;;6322004;22;19914;-85
2022/08/08 04:35:34;;;;;;;;;;;;;;;;;;6298428;22;19914;-85
2022/08/08 04:38:00;;;;;;;;;;;;;;;;;;6271373;22;19918;-85
2022/08/08 04:40:26;;;;;;;;;;;;;;;;;;6297536;22;19918;-85
2022/08/08 04:49:52;;;;;;;;;;;;;;;;;;6145965;23;19916;-86
2022/08/08 04:52:12;;;;;;;;;;;;;;;;;;6111751;23;20286;-87
2022/08/08 04:54:38;;;;;;;;;;;;;;;;;;6113822;23;20634;-86
2022/08/08 04:57:03;;;;;;;;;;;;;;;;;;6137638;23;19923;-87
2022/08/08 04:59:29;;;;;;;;;;;;;;;;;;6177013;23;20006;-87
2022/08/08 05:01:58;;;;;;;;;;;;;;;;;;6228317;23;20428;-87
2022/08/08 05:04:24;;;;;;;;;;;;;;;;;;6204602;23;19955;-87
2022/08/08 05:06:50;;;;;;;;;;;;;;;;;;6267291;22;19914;-86
2022/08/08 05:09:16;;;;;;;;;;;;;;;;;;6270819;22;19918;-84
2022/08/08 05:11:42;;;;;;;;;;;;;;;;;;6299231;22;19989;-84
2022/08/08 05:14:16;;;;;;;;;;;;;;;;;;6298904;22;19917;-85
2022/08/08 05:16:42;;;;;;;;;;;;;;;;;;6272819;22;19911;-86
2022/08/08 05:19:11;;;;;;;;;;;;;;;;;;6271181;22;19922;-86
2022/08/08 05:21:37;;;;;;;;;;;;;;;;;;6298046;22;19919;-86
2022/08/08 05:24:04;;;;;;;;;;;;;;;;;;6297331;22;19914;-86
2022/08/08 05:26:31;;;;;;;;;;;;;;;;;;6299340;22;19914;-86
2022/08/08 05:28:57;;;;;;;;;;;;;;;;;;6323465;22;20000;-86
2022/08/08 05:31:23;;;;;;;;;;;;;;;;;;6295504;22;20651;-84
2022/08/08 05:33:54;;;;;;;;;;;;;;;;;;6327312;22;20461;-84
2022/08/08 05:36:21;;;;;;;;;;;;;;;;;;6323072;22;19918;-84
2022/08/08 05:38:49;;;;;;;;;;;;;;;;;;6325385;22;20320;-85
2022/08/08 05:41:16;;;;;;;;;;;;;;;;;;6320904;22;19918;-84
2022/08/08 05:43:42;;;;;;;;;;;;;;;;;;6323297;22;19910;-85
2022/08/08 05:46:10;;;;;;;;;;;;;;;;;;6294550;22;19914;-84
2022/08/08 05:48:37;;;;;;;;;;;;;;;;;;6297058;22;20449;-85
2022/08/08 05:51:03;;;;;;;;;;;;;;;;;;6322287;22;19938;-85
2022/08/08 05:53:30;;;;;;;;;;;;;;;;;;6323840;22;19915;-84
2022/08/08 05:56:01;;;;;;;;;;;;;;;;;;6297490;22;19914;-84
2022/08/08 05:58:27;;;;;;;;;;;;;;;;;;6298756;22;19932;-84
2022/08/08 06:00:53;;;;;;;;;;;;;;;;;;6299334;22;19917;-84
2022/08/08 06:03:20;;;;;;;;;;;;;;;;;;6297872;22;19914;-85
2022/08/08 06:05:46;;;;;;;;;;;;;;;;;;6325223;22;19923;-84
2022/08/08 06:08:14;;;;;;;;;;;;;;;;;;6324805;22;20188;-83
2022/08/08 06:10:39;;;;;;;;;;;;;;;;;;6326754;22;20212;-84
2022/08/08 06:13:05;;;;;;;;;;;;;;;;;;6321254;22;20341;-83
2022/08/08 06:15:42;;;;;;;;;;;;;;;;;;6325306;22;19961;-83
2022/08/08 06:18:08;;;;;;;;;;;;;;;;;;6296416;22;20330;-83
2022/08/08 06:20:35;;;;;;;;;;;;;;;;;;6300136;22;19910;-83
2022/08/08 06:23:01;;;;;;;;;;;;;;;;;;6297395;22;19915;-83
2022/08/08 06:25:28;;;;;;;;;;;;;;;;;;6300622;22;19971;-83
2022/08/08 06:27:56;;;;;;;;;;;;;;;;;;6326916;22;19910;-83
2022/08/08 06:30:22;;;;;;;;;;;;;;;;;;6298492;22;19911;-83
2022/08/08 06:32:50;;;;;;;;;;;;;;;;;;6298918;22;19915;-83
2022/08/08 06:35:16;;;;;;;;;;;;;;;;;;6294698;22;19921;-83
2022/08/08 06:37:43;;;;;;;;;;;;;;;;;;6324509;22;19914;-83
2022/08/08 06:40:13;;;;;;;;;;;;;;;;;;6296349;22;19929;-83
2022/08/08 06:42:40;;;;;;;;;;;;;;;;;;6296686;22;19918;-84
2022/08/08 06:45:09;;;;;;;;;;;;;;;;;;6322204;22;19914;-83
2022/08/08 06:47:35;;;;;;;;;;;;;;;;;;6324343;22;19964;-83
2022/08/08 06:50:02;;;;;;;;;;;;;;;;;;6297164;22;19910;-83
2022/08/08 06:52:28;;;;;;;;;;;;;;;;;;6322764;22;19914;-83
2022/08/08 06:54:57;;;;;;;;;;;;;;;;;;6299688;22;19993;-83
2022/08/08 06:57:23;;;;;;;;;;;;;;;;;;6295738;22;20334;-83
2022/08/08 06:59:49;;;;;;;;;;;;;;;;;;6300418;22;19914;-83
2022/08/08 07:02:16;;;;;;;;;;;;;;;;;;6297235;22;19994;-83
2022/08/08 07:04:42;;;;;;;;;;;;;;;;;;6299963;22;19914;-83
2022/08/08 07:07:08;;;;;;;;;;;;;;;;;;6296693;22;19918;-83
2022/08/08 07:09:36;;;;;;;;;;;;;;;;;;6325001;22;19910;-83
2022/08/08 07:12:02;;;;;;;;;;;;;;;;;;6300320;22;19911;-83
2022/08/08 07:14:28;;;;;;;;;;;;;;;;;;6324883;22;19914;-83
2022/08/08 07:16:54;;;;;;;;;;;;;;;;;;6296137;22;20314;-83
2022/08/08 07:19:23;;;;;;;;;;;;;;;;;;6324795;22;19926;-83
2022/08/08 07:21:54;;;;;;;;;;;;;;;;;;6325216;22;19918;-83
2022/08/08 07:24:19;;;;;;;;;;;;;;;;;;6298763;22;20316;-84
2022/08/08 07:26:46;;;;;;;;;;;;;;;;;;6300764;22;19946;-83
2022/08/08 07:29:12;;;;;;;;;;;;;;;;;;6296585;22;19921;-83
2022/08/08 07:31:38;;;;;;;;;;;;;;;;;;6326087;22;19910;-83
2022/08/08 07:34:04;;;;;;;;;;;;;;;;;;6298743;22;19910;-84
2022/08/08 07:36:30;;;;;;;;;;;;;;;;;;6325462;22;19986;-84
2022/08/08 07:38:56;;;;;;;;;;;;;;;;;;6326500;22;19915;-83
2022/08/08 07:41:22;;;;;;;;;;;;;;;;;;6297593;22;20235;-84
2022/08/08 07:43:49;;;;;;;;;;;;;;;;;;6300515;22;19926;-83
2022/08/08 07:46:16;;;;;;;;;;;;;;;;;;6323743;22;19915;-83
2022/08/08 07:48:42;;;;;;;;;;;;;;;;;;6325823;22;19910;-83
2022/08/08 07:51:08;;;;;;;;;;;;;;;;;;6297415;22;19921;-83
2022/08/08 07:53:34;;;;;;;;;;;;;;;;;;6296337;22;19925;-83
2022/08/08 07:56:00;;;;;;;;;;;;;;;;;;6322455;22;19922;-84
2022/08/08 07:58:26;;;;;;;;;;;;;;;;;;6298812;22;20254;-84
2022/08/08 08:00:52;;;;;;;;;;;;;;;;;;6297312;22;20007;-83
2022/08/08 08:03:18;;;;;;;;;;;;;;;;;;6321831;22;19918;-84
2022/08/08 08:05:44;;;;;;;;;;;;;;;;;;6324315;22;19916;-83
2022/08/08 08:08:10;;;;;;;;;;;;;;;;;;6296082;22;19970;-83
2022/08/08 08:10:37;;;;;;;;;;;;;;;;;;6325192;22;20249;-83
2022/08/08 08:13:19;;;;;;;;;;;;;;;;;;6295883;22;20219;-83
2022/08/08 08:15:45;;;;;;;;;;;;;;;;;;6296406;22;20192;-83
2022/08/08 08:18:11;;;;;;;;;;;;;;;;;;6320483;22;19953;-83
2022/08/08 08:20:37;;;;;;;;;;;;;;;;;;6301380;22;19915;-84
2022/08/08 08:23:03;;;;;;;;;;;;;;;;;;6297199;22;19921;-84
2022/08/08 08:25:29;;;;;;;;;;;;;;;;;;6300213;22;19918;-83
2022/08/08 08:27:58;;;;;;;;;;;;;;;;;;6301128;22;19921;-88
2022/08/08 08:30:27;;;;;;;;;;;;;;;;;;6231529;23;19974;-84
2022/08/08 08:32:53;;;;;;;;;;;;;;;;;;6180757;23;20621;-83
2022/08/08 08:35:19;;;;;;;;;;;;;;;;;;6223149;23;19982;-83
2022/08/08 08:37:45;;;;;;;;;;;;;;;;;;6182106;23;19911;-83
2022/08/08 08:40:10;;;;;;;;;;;;;;;;;;6205756;23;20233;-83
2022/08/08 08:42:36;;;;;;;;;;;;;;;;;;6208494;23;19923;-83
2022/08/08 08:45:02;;;;;;;;;;;;;;;;;;6181199;23;19955;-83
2022/08/08 08:47:28;;;;;;;;;;;;;;;;;;6207918;23;19919;-83
2022/08/08 08:49:54;;;;;;;;;;;;;;;;;;6181946;23;19920;-83
2022/08/08 08:52:23;;;;;;;;;;;;;;;;;;6179749;23;20503;-82
2022/08/08 08:54:49;;;;;;;;;;;;;;;;;;6248001;22;20387;-86
2022/08/08 08:57:18;;;;;;;;;;;;;;;;;;6296989;22;19928;-83
2022/08/08 08:59:44;;;;;;;;;;;;;;;;;;6300626;22;19922;-83
2022/08/08 09:02:10;;;;;;;;;;;;;;;;;;6298122;22;20327;-83
2022/08/08 09:04:36;;;;;;;;;;;;;;;;;;6329366;22;19919;-83
2022/08/08 09:07:03;;;;;;;;;;;;;;;;;;6326267;22;19915;-83
2022/08/08 09:09:31;;;;;;;;;;;;;;;;;;6325225;22;20413;-83
2022/08/08 09:11:57;;;;;;;;;;;;;;;;;;6300028;22;19960;-83
2022/08/08 09:14:23;;;;;;;;;;;;;;;;;;6300731;22;19949;-83
2022/08/08 09:16:49;;;;;;;;;;;;;;;;;;6301018;22;19981;-83
2022/08/08 09:41:30;;;;;;;;;;;;;;;;;;;;;
2022/08/08 10:05:54;;;;;;;;;;;;;;;;;;6002814;22;19951;-84
2022/08/08 10:08:56;;;;;;;;;;;;;;;;;;6242868;22;20410;-89
2022/08/08 10:11:24;;;;;;;;;;;;;;;;;;6228167;22;19950;-88
2022/08/08 10:13:59;;;;;;;;;;;;;;;;;;6207134;22;19915;-89
2022/08/08 10:22:46;;;;;;;;;;;;;;;;;;;;;
2022/08/08 10:26:00;;;;;;;;;;;;;;;;;;6228817;23;19915;-88
2022/08/08 10:28:39;;;;;;;;;;;;;;;;;;6207089;23;20319;-88
2022/08/08 10:34:12;;;;;;;;;;;;;;;;;;6245381;23;20037;-87
2022/08/08 10:36:41;;;;;;;;;;;;;;;;;;6186839;23;20332;-88
2022/08/08 10:42:14;;;;;;;;;;;;;;;;;;;;;
2022/08/08 10:44:49;;;;;;;;;;;;;;;;;;6203506;23;20283;-88
2022/08/08 10:47:42;;;;;;;;;;;;;;;;;;6181106;23;19916;-89
2022/08/08 10:53:46;;;;;;;;;;;;;;;;;;;;;
2022/08/08 11:02:17;;;;;;;;;;;;;;;;;;6029538;23;19914;-88
2022/08/08 11:04:52;;;;;;;;;;;;;;;;;;6049895;23;19921;-87
2022/08/08 11:10:31;;;;;;;;;;;;;;;;;;6230231;23;20241;-88
2022/08/08 11:16:11;;;;;;;;;;;;;;;;;;6198645;23;19912;-87
2022/08/08 11:18:51;;;;;;;;;;;;;;;;;;;;;
2022/08/08 11:21:29;;;;;;;;;;;;;;;;;;6245661;23;20377;-88
2022/08/08 11:24:07;;;;;;;;;;;;;;;;;;6209059;23;20336;-89
2022/08/08 11:35:06;;;;;;;;;;;;;;;;;;6141396;23;20110;-88
2022/08/08 11:37:35;;;;;;;;;;;;;;;;;;6141317;23;19923;-88
2022/08/08 11:40:07;;;;;;;;;;;;;;;;;;6140199;23;19916;-87
2022/08/08 11:42:38;;;;;;;;;;;;;;;;;;6143222;23;19916;-87
2022/08/08 11:45:08;;;;;;;;;;;;;;;;;;6144001;23;19916;-87
2022/08/08 11:47:37;;;;;;;;;;;;;;;;;;6156177;23;20414;-87
2022/08/08 11:50:20;;;;;;;;;;;;;;;;;;6134318;23;20241;-87
2022/08/08 11:52:51;;;;;;;;;;;;;;;;;;6122992;23;19916;-87
2022/08/08 11:55:36;;;;;;;;;;;;;;;;;;;;;
2022/08/08 11:58:23;;;;;;;;;;;;;;;;;;6180967;23;19931;-87
2022/08/08 12:00:57;;;;;;;;;;;;;;;;;;6123339;23;19951;-87
2022/08/08 12:03:28;;;;;;;;;;;;;;;;;;6147930;23;19955;-87
2022/08/08 12:06:10;;;;;;;;;;;;;;;;;;;;;
2022/08/08 12:08:41;;;;;;;;;;;;;;;;;;6149422;23;19938;-87
2022/08/08 12:13:56;;;;;;;;;;;;;;;;;;6148713;23;19912;-88
2022/08/08 12:16:24;;;;;;;;;;;;;;;;;;6119869;23;19991;-86
2022/08/08 12:18:50;;;;;;;;;;;;;;;;;;6183089;23;19991;-87
2022/08/08 12:21:25;;;;;;;;;;;;;;;;;;6205187;23;19918;-88
2022/08/08 12:23:51;;;;;;;;;;;;;;;;;;6233728;23;19911;-86
2022/08/08 12:26:19;;;;;;;;;;;;;;;;;;6210165;23;19919;-90
2022/08/08 12:28:52;;;;;;;;;;;;;;;;;;6211739;23;20240;-87
2022/08/08 12:34:32;;;;;;;;;;;;;;;;;;6185179;23;19916;-88
2022/08/08 12:37:01;;;;;;;;;;;;;;;;;;6148834;23;19916;-88
2022/08/08 12:39:32;;;;;;;;;;;;;;;;;;6151645;23;19919;-91
2022/08/08 12:42:01;;;;;;;;;;;;;;;;;;6142971;23;19920;-87
2022/08/08 12:44:48;;;;;;;;;;;;;;;;;;6128743;23;19916;-87
2022/08/08 12:47:25;;;;;;;;;;;;;;;;;;;;;
2022/08/08 12:55:40;;;;;;;;;;;;;;;;;;6152128;23;19955;-87
2022/08/08 12:58:06;;;;;;;;;;;;;;;;;;6150666;23;20016;-87
2022/08/08 13:00:37;;;;;;;;;;;;;;;;;;6152973;23;20340;-88
2022/08/08 13:03:14;;;;;;;;;;;;;;;;;;6151735;23;20241;-87
2022/08/08 13:06:01;;;;;;;;;;;;;;;;;;6150096;23;19923;-87
2022/08/08 13:08:41;;;;;;;;;;;;;;;;;;6148220;23;19920;-87
2022/08/08 13:11:14;;;;;;;;;;;;;;;;;;6208017;23;20371;-87
2022/08/08 13:13:46;;;;;;;;;;;;;;;;;;6209778;23;19922;-87
2022/08/08 13:16:19;;;;;;;;;;;;;;;;;;6206910;23;20280;-87
2022/08/08 13:21:37;;;;;;;;;;;;;;;;;;6204303;23;19919;-87
2022/08/08 13:27:15;;;;;;;;;;;;;;;;;;6244006;23;19938;-88
2022/08/08 13:29:53;;;;;;;;;;;;;;;;;;6213106;23;19923;-88
2022/08/08 13:32:24;;;;;;;;;;;;;;;;;;6213445;23;19911;-88
2022/08/08 13:34:53;;;;;;;;;;;;;;;;;;6215820;23;19923;-87
2022/08/08 13:37:29;;;;;;;;;;;;;;;;;;6186485;23;19921;-88
2022/08/08 13:40:17;;;;;;;;;;;;;;;;;;6233388;23;19915;-87
2022/08/08 13:42:46;;;;;;;;;;;;;;;;;;6202246;23;20006;-88
2022/08/08 13:45:22;;;;;;;;;;;;;;;;;;6198960;23;20360;-88
2022/08/08 13:47:57;;;;;;;;;;;;;;;;;;6176512;23;19915;-89
2022/08/08 13:53:15;;;;;;;;;;;;;;;;;;6206704;23;19990;-87
2022/08/08 13:55:59;;;;;;;;;;;;;;;;;;;;;
2022/08/08 14:01:35;;;;;;;;;;;;;;;;;;6202388;23;20352;-88
2022/08/08 14:06:57;;;;;;;;;;;;;;;;;;6211187;23;19915;-88
2022/08/08 14:09:32;;;;;;;;;;;;;;;;;;6180785;23;19919;-87
2022/08/08 14:12:06;;;;;;;;;;;;;;;;;;6176568;23;20344;-89
2022/08/08 14:14:44;;;;;;;;;;;;;;;;;;6141625;23;20301;-88
2022/08/08 14:17:18;;;;;;;;;;;;;;;;;;6139054;23;19923;-88
2022/08/08 14:19:58;;;;;;;;;;;;;;;;;;;;;
2022/08/08 14:22:32;;;;;;;;;;;;;;;;;;6138483;23;19920;-88
2022/08/08 14:25:52;;;;;;;;;;;;;;;;;;6139877;23;19924;-88
2022/08/08 14:28:14;;;;;;;;;;;;;;;;;;6102945;23;20004;-89
2022/08/08 14:31:05;;;;;;;;;;;;;;;;;;;;;
2022/08/08 14:33:55;;;;;;;;;;;;;;;;;;6115855;23;20245;-88
2022/08/08 14:39:54;;;;;;;;;;;;;;;;;;;;;
2022/08/08 14:42:38;;;;;;;;;;;;;;;;;;;;;
2022/08/08 14:48:26;;;;;;;;;;;;;;;;;;;;;
2022/08/08 14:54:15;;;;;;;;;;;;;;;;;;6106122;23;19920;-89
2022/08/08 14:57:03;;;;;;;;;;;;;;;;;;6123169;23;19916;-88
2022/08/08 15:00:26;;;;;;;;;;;;;;;;;;6090624;23;19968;-88
2022/08/08 15:05:55;;;;;;;;;;;;;;;;;;6134101;23;19951;-89
2022/08/08 15:08:27;;;;;;;;;;;;;;;;;;6101849;23;20385;-88
2022/08/08 15:16:37;;;;;;;;;;;;;;;;;;6229381;23;19919;-82
2022/08/08 15:19:23;;;;;;;;;;;;;;;;;;6230562;23;19914;-82
2022/08/08 15:21:48;;;;;;;;;;;;;;;;;;6230478;23;19919;-82
2022/08/08 15:24:15;;;;;;;;;;;;;;;;;;6225778;23;19926;-82
2022/08/08 15:26:42;;;;;;;;;;;;;;;;;;6226238;22;19915;-82
2022/08/08 15:29:13;;;;;;;;;;;;;;;;;;6224830;23;19923;-82
2022/08/08 15:31:40;;;;;;;;;;;;;;;;;;6226488;22;19920;-82
2022/08/08 15:34:08;;;;;;;;;;;;;;;;;;6223666;23;20063;-81
2022/08/08 15:36:36;;;;;;;;;;;;;;;;;;6252030;22;19919;-82
2022/08/08 15:39:02;;;;;;;;;;;;;;;;;;6226354;23;20319;-82
2022/08/08 15:41:29;;;;;;;;;;;;;;;;;;6227915;23;19994;-82
2022/08/08 15:43:58;;;;;;;;;;;;;;;;;;6229784;23;19950;-82
2022/08/08 15:46:24;;;;;;;;;;;;;;;;;;6226811;23;19981;-82
2022/08/08 15:48:54;;;;;;;;;;;;;;;;;;6230997;23;19934;-82
2022/08/08 15:51:25;;;;;;;;;;;;;;;;;;6225603;23;19916;-83
2022/08/08 15:53:52;;;;;;;;;;;;;;;;;;6227871;23;19922;-82
2022/08/08 15:56:19;;;;;;;;;;;;;;;;;;6225998;23;19919;-82
2022/08/08 15:58:46;;;;;;;;;;;;;;;;;;6225294;23;19915;-82
2022/08/08 16:01:12;;;;;;;;;;;;;;;;;;6224769;23;20181;-83
2022/08/08 16:03:38;;;;;;;;;;;;;;;;;;6227058;23;19915;-82
2022/08/08 16:06:05;;;;;;;;;;;;;;;;;;6224444;22;19969;-83
2022/08/08 16:08:50;;;;;;;;;;;;;;;;;;6225284;23;19915;-83
2022/08/08 16:11:18;;;;;;;;;;;;;;;;;;6246650;22;19915;-83
2022/08/08 16:13:45;;;;;;;;;;;;;;;;;;6249641;22;20291;-83
2022/08/08 16:16:13;;;;;;;;;;;;;;;;;;6244320;22;19919;-82
2022/08/08 16:18:41;;;;;;;;;;;;;;;;;;6249196;22;20336;-83
2022/08/08 16:21:08;;;;;;;;;;;;;;;;;;6222113;23;19926;-83
2022/08/08 16:23:35;;;;;;;;;;;;;;;;;;6225423;22;20379;-83
2022/08/08 16:26:19;;;;;;;;;;;;;;;;;;6223183;23;20451;-82
2022/08/08 16:28:54;;;;;;;;;;;;;;;;;;6223308;23;20019;-83
2022/08/08 16:31:44;;;;;;;;;;;;;;;;;;6233990;23;19915;-83
2022/08/08 16:34:12;;;;;;;;;;;;;;;;;;6245311;22;19915;-82
2022/08/08 16:36:40;;;;;;;;;;;;;;;;;;6223143;23;19926;-82
2022/08/08 16:39:06;;;;;;;;;;;;;;;;;;6249993;22;19919;-82
2022/08/08 16:41:33;;;;;;;;;;;;;;;;;;6196339;23;19966;-82
2022/08/08 16:43:59;;;;;;;;;;;;;;;;;;6227342;23;19916;-82
2022/08/08 16:46:32;;;;;;;;;;;;;;;;;;6225143;23;19990;-82
2022/08/08 16:49:00;;;;;;;;;;;;;;;;;;6224444;23;19926;-82
2022/08/08 16:51:42;;;;;;;;;;;;;;;;;;6222347;23;19922;-82
2022/08/08 16:54:09;;;;;;;;;;;;;;;;;;6221236;23;19926;-82
2022/08/08 16:56:40;;;;;;;;;;;;;;;;;;6223835;23;20118;-81
2022/08/08 16:59:06;;;;;;;;;;;;;;;;;;6222434;23;19958;-82
2022/08/08 17:01:31;;;;;;;;;;;;;;;;;;6176012;23;19919;-83
2022/08/08 17:03:57;;;;;;;;;;;;;;;;;;6173590;23;19919;-82
2022/08/08 17:06:24;;;;;;;;;;;;;;;;;;6225332;22;19915;-82
2022/08/08 17:08:51;;;;;;;;;;;;;;;;;;6228057;23;19912;-83
2022/08/08 17:11:17;;;;;;;;;;;;;;;;;;6199074;23;19920;-83
2022/08/08 17:13:47;;;;;;;;;;;;;;;;;;6225899;23;19915;-83
2022/08/08 17:16:14;;;;;;;;;;;;;;;;;;6226279;23;19923;-83
2022/08/08 17:18:42;;;;;;;;;;;;;;;;;;6179882;23;19966;-83
2022/08/08 17:21:08;;;;;;;;;;;;;;;;;;6250402;22;19919;-83
2022/08/08 17:23:49;;;;;;;;;;;;;;;;;;6226980;22;19927;-83
2022/08/08 17:26:24;;;;;;;;;;;;;;;;;;6226429;22;20010;-83
2022/08/08 17:28:52;;;;;;;;;;;;;;;;;;6227324;22;19911;-82
2022/08/08 17:31:20;;;;;;;;;;;;;;;;;;6225057;23;19960;-83
2022/08/08 17:33:47;;;;;;;;;;;;;;;;;;6221192;23;20365;-82
2022/08/08 17:36:17;;;;;;;;;;;;;;;;;;6224584;22;19912;-83
2022/08/08 17:38:49;;;;;;;;;;;;;;;;;;6249047;22;20403;-83
2022/08/08 17:41:20;;;;;;;;;;;;;;;;;;6247145;22;19923;-83
2022/08/08 17:43:48;;;;;;;;;;;;;;;;;;6227431;22;20363;-83
2022/08/08 17:46:16;;;;;;;;;;;;;;;;;;6227689;23;19919;-83
2022/08/08 17:48:43;;;;;;;;;;;;;;;;;;6251112;22;19916;-83
2022/08/08 17:51:13;;;;;;;;;;;;;;;;;;6224423;23;19957;-83
2022/08/08 17:53:41;;;;;;;;;;;;;;;;;;6248391;22;19943;-83
2022/08/08 17:56:08;;;;;;;;;;;;;;;;;;6222157;22;19915;-84
2022/08/08 18:18:18;;;;;;;;;;;;;;;;;;6057323;23;20490;-86
2022/08/08 18:21:27;;;;;;;;;;;;;;;;;;;;;
2022/08/08 18:30:27;;;;;;;;;;;;;;;;;;6108311;23;19968;-88
2022/08/08 18:33:25;;;;;;;;;;;;;;;;;;;;;
2022/08/08 18:36:06;;;;;;;;;;;;;;;;;;6126720;23;19912;-88
2022/08/08 18:39:03;;;;;;;;;;;;;;;;;;;;;
2022/08/08 18:47:47;;;;;;;;;;;;;;;;;;6214929;22;19950;-88
2022/08/08 18:50:17;;;;;;;;;;;;;;;;;;6196481;23;20092;-88
2022/08/08 18:52:43;;;;;;;;;;;;;;;;;;6170062;23;19915;-87
2022/08/08 18:55:10;;;;;;;;;;;;;;;;;;6192298;23;19939;-87
2022/08/08 18:57:38;;;;;;;;;;;;;;;;;;6222788;23;19922;-87
2022/08/08 19:00:18;;;;;;;;;;;;;;;;;;6222355;23;19926;-87
2022/08/08 19:02:44;;;;;;;;;;;;;;;;;;6197891;23;19942;-87
2022/08/08 19:05:10;;;;;;;;;;;;;;;;;;6171860;22;19919;-87
2022/08/08 19:07:37;;;;;;;;;;;;;;;;;;6202183;22;19915;-88
2022/08/08 19:10:03;;;;;;;;;;;;;;;;;;6199506;22;19911;-87
2022/08/08 19:12:31;;;;;;;;;;;;;;;;;;6248945;22;19911;-87
2022/08/08 19:15:15;;;;;;;;;;;;;;;;;;6251214;22;19934;-88
2022/08/08 19:17:55;;;;;;;;;;;;;;;;;;6230921;22;19915;-87
2022/08/08 19:20:26;;;;;;;;;;;;;;;;;;6228933;22;19915;-88
2022/08/08 19:22:54;;;;;;;;;;;;;;;;;;6250785;22;19919;-87
2022/08/08 19:25:20;;;;;;;;;;;;;;;;;;6221293;22;19946;-87
2022/08/08 19:27:46;;;;;;;;;;;;;;;;;;6252617;22;19990;-86
2022/08/08 19:30:13;;;;;;;;;;;;;;;;;;6198679;22;19922;-87
2022/08/08 19:33:05;;;;;;;;;;;;;;;;;;6254873;22;19915;-87
2022/08/08 19:35:32;;;;;;;;;;;;;;;;;;6203968;22;19985;-87
2022/08/08 19:38:05;;;;;;;;;;;;;;;;;;6199968;22;19926;-87
2022/08/08 19:40:36;;;;;;;;;;;;;;;;;;6248275;22;19921;-87
2022/08/08 19:43:17;;;;;;;;;;;;;;;;;;6216987;23;19927;-86
2022/08/08 19:45:44;;;;;;;;;;;;;;;;;;6195891;23;19915;-88
2022/08/08 19:48:13;;;;;;;;;;;;;;;;;;6192636;23;20759;-88
2022/08/08 19:50:40;;;;;;;;;;;;;;;;;;6197673;23;19917;-88
2022/08/08 19:53:07;;;;;;;;;;;;;;;;;;6214128;23;19922;-88
2022/08/08 19:55:54;;;;;;;;;;;;;;;;;;6222258;23;19915;-87
2022/08/08 19:58:20;;;;;;;;;;;;;;;;;;6197431;23;20387;-87
2022/08/08 20:00:50;;;;;;;;;;;;;;;;;;6194572;23;19916;-87
2022/08/08 20:03:16;;;;;;;;;;;;;;;;;;6194328;23;19919;-87
2022/08/08 20:05:52;;;;;;;;;;;;;;;;;;6196918;23;19922;-87
2022/08/08 20:08:21;;;;;;;;;;;;;;;;;;6190033;23;19915;-88
2022/08/08 20:10:48;;;;;;;;;;;;;;;;;;6195931;23;20609;-87
2022/08/08 20:13:28;;;;;;;;;;;;;;;;;;6195532;22;19931;-87
2022/08/08 20:16:00;;;;;;;;;;;;;;;;;;6200428;22;20027;-87
2022/08/08 20:18:26;;;;;;;;;;;;;;;;;;6252372;22;19919;-87
2022/08/08 20:20:53;;;;;;;;;;;;;;;;;;6257865;22;20167;-87
2022/08/08 20:23:23;;;;;;;;;;;;;;;;;;6253577;22;20310;-86
2022/08/08 20:25:53;;;;;;;;;;;;;;;;;;6203584;22;19947;-86
2022/08/08 20:28:24;;;;;;;;;;;;;;;;;;6229549;22;19925;-86
2022/08/08 20:30:53;;;;;;;;;;;;;;;;;;6257632;22;19977;-86
2022/08/08 20:33:25;;;;;;;;;;;;;;;;;;6258422;22;19919;-86
2022/08/08 20:35:52;;;;;;;;;;;;;;;;;;6208126;22;20004;-87
2022/08/08 20:38:35;;;;;;;;;;;;;;;;;;6142175;23;19978;-87
2022/08/08 20:41:03;;;;;;;;;;;;;;;;;;6137817;23;20393;-87
2022/08/08 20:43:30;;;;;;;;;;;;;;;;;;6164789;23;20337;-86
2022/08/08 20:45:59;;;;;;;;;;;;;;;;;;6091370;23;20123;-87
2022/08/08 20:48:26;;;;;;;;;;;;;;;;;;6137002;23;19920;-86
2022/08/08 20:50:52;;;;;;;;;;;;;;;;;;6141541;23;19971;-87
2022/08/08 20:53:19;;;;;;;;;;;;;;;;;;6163453;23;19916;-87
2022/08/08 20:56:10;;;;;;;;;;;;;;;;;;6165904;23;20272;-87
2022/08/08 20:58:52;;;;;;;;;;;;;;;;;;6078455;23;19992;-86
2022/08/08 21:01:19;;;;;;;;;;;;;;;;;;6048619;23;19976;-87
2022/08/08 21:03:45;;;;;;;;;;;;;;;;;;6077621;23;19917;-86
2022/08/08 21:06:12;;;;;;;;;;;;;;;;;;6073110;23;19925;-87
2022/08/08 21:08:53;;;;;;;;;;;;;;;;;;6033819;23;20019;-87
2022/08/08 21:11:26;;;;;;;;;;;;;;;;;;6076616;23;20354;-87
2022/08/08 21:14:01;;;;;;;;;;;;;;;;;;6079033;23;20017;-86
2022/08/08 21:16:42;;;;;;;;;;;;;;;;;;6020639;23;19945;-87
2022/08/08 21:19:09;;;;;;;;;;;;;;;;;;5967892;23;19922;-86
2022/08/08 21:21:35;;;;;;;;;;;;;;;;;;6018997;23;19918;-87
2022/08/08 21:24:02;;;;;;;;;;;;;;;;;;6017979;23;19917;-87
2022/08/08 21:26:28;;;;;;;;;;;;;;;;;;5975353;23;19918;-87
2022/08/08 21:28:54;;;;;;;;;;;;;;;;;;5981402;23;20708;-87
2022/08/08 21:31:22;;;;;;;;;;;;;;;;;;6104798;23;19916;-87
2022/08/08 21:33:52;;;;;;;;;;;;;;;;;;6104959;23;20376;-87
2022/08/08 21:36:19;;;;;;;;;;;;;;;;;;6056433;23;19917;-86
2022/08/08 21:38:49;;;;;;;;;;;;;;;;;;6082383;23;20271;-87
2022/08/08 21:41:16;;;;;;;;;;;;;;;;;;6086853;23;19912;-87
2022/08/08 21:43:44;;;;;;;;;;;;;;;;;;6138646;23;19931;-88
2022/08/08 21:46:14;;;;;;;;;;;;;;;;;;6109496;23;19968;-87
2022/08/08 21:48:40;;;;;;;;;;;;;;;;;;6224827;22;19946;-87
2022/08/08 21:51:27;;;;;;;;;;;;;;;;;;6262506;22;19915;-88
2022/08/08 21:53:53;;;;;;;;;;;;;;;;;;6259537;22;19915;-87
2022/08/08 21:56:22;;;;;;;;;;;;;;;;;;6259641;22;20178;-86